Time;durP1;ratioP1;P1;durP2;ratioP2;P2;SDS_P1;SDS_P2;PMS_P1;PMS_P2;Temp;Humidity;BMP_temperature;BMP_pressure;BME280_temperature;BME280_humidity;BME280_pressure;Samples;Min_cycle;Max_cycle;Signal;HPM_P1;HPM_P2
2021/10/04 00:01:23;;;;;;;59.03;38.33;;;9.60;86.40;;;;;;5094961;28;20032;-80
2021/10/04 00:03:48;;;;;;;44.92;29.80;;;9.50;85.90;;;;;;5076746;28;20118;-79
2021/10/04 00:06:14;;;;;;;57.58;36.85;;;9.40;88.10;;;;;;5094448;28;20036;-80
2021/10/04 00:08:40;;;;;;;54.17;38.45;;;9.40;87.60;;;;;;5078505;28;20043;-80
2021/10/04 00:11:06;;;;;;;51.40;35.60;;;9.30;87.30;;;;;;5074442;28;20035;-80
2021/10/04 00:13:31;;;;;;;54.78;35.05;;;9.20;87.20;;;;;;5056731;28;20406;-80
2021/10/04 00:15:58;;;;;;;58.50;36.45;;;9.10;88.30;;;;;;5056298;28;20028;-81
2021/10/04 00:18:24;;;;;;;47.15;31.70;;;9.00;88.60;;;;;;5074528;28;20112;-80
2021/10/04 00:20:50;;;;;;;48.78;33.75;;;9.00;90.00;;;;;;5074681;28;20492;-79
2021/10/04 00:23:16;;;;;;;54.45;36.38;;;9.00;90.10;;;;;;5056463;28;20097;-80
2021/10/04 00:25:42;;;;;;;55.22;34.35;;;9.00;90.00;;;;;;5057031;28;20482;-80
2021/10/04 00:28:08;;;;;;;51.67;34.00;;;9.00;90.10;;;;;;5076094;28;20115;-79
2021/10/04 00:30:34;;;;;;;45.75;28.55;;;9.00;90.60;;;;;;5075986;28;20031;-77
2021/10/04 00:33:00;;;;;;;43.00;28.67;;;9.00;91.60;;;;;;5094375;28;20061;-80
2021/10/04 00:35:26;;;;;;;38.78;27.60;;;9.00;92.30;;;;;;5093516;28;20066;-79
2021/10/04 00:37:53;;;;;;;41.60;27.88;;;9.10;92.90;;;;;;5094168;28;20110;-80
2021/10/04 00:40:24;;;;;;;46.15;32.25;;;9.10;92.90;;;;;;5076169;28;20067;-79
2021/10/04 00:42:50;;;;;;;43.42;30.42;;;9.10;92.00;;;;;;5094215;28;20028;-79
2021/10/04 00:45:17;;;;;;;43.10;31.35;;;9.00;92.10;;;;;;5094151;28;20082;-80
2021/10/04 00:47:42;;;;;;;41.58;27.50;;;9.00;92.50;;;;;;5076201;28;20039;-81
2021/10/04 00:50:10;;;;;;;44.20;30.52;;;8.90;92.90;;;;;;5094009;28;20028;-80
2021/10/04 00:52:37;;;;;;;49.53;32.67;;;8.90;93.20;;;;;;5076254;28;20466;-79
2021/10/04 00:55:05;;;;;;;41.65;27.25;;;8.90;92.60;;;;;;5094064;28;20024;-80
2021/10/04 00:57:31;;;;;;;55.47;37.30;;;8.80;93.10;;;;;;5074623;28;20119;-79
2021/10/04 00:59:57;;;;;;;55.55;38.10;;;8.80;92.00;;;;;;5075679;28;20074;-80
2021/10/04 01:02:23;;;;;;;57.90;35.03;;;8.70;91.10;;;;;;5094300;28;20024;-79
2021/10/04 01:04:49;;;;;;;51.20;34.10;;;8.60;91.00;;;;;;5075793;28;20024;-80
2021/10/04 01:07:15;;;;;;;49.53;34.22;;;8.50;90.60;;;;;;5075765;28;20059;-80
2021/10/04 01:09:40;;;;;;;47.63;32.72;;;8.40;90.40;;;;;;5093792;28;20096;-79
2021/10/04 01:12:08;;;;;;;51.97;34.33;;;8.30;90.40;;;;;;5058179;28;20029;-79
2021/10/04 01:14:33;;;;;;;53.97;33.90;;;8.20;90.10;;;;;;5053621;28;20025;-81
2021/10/04 01:17:00;;;;;;;52.97;35.20;;;8.10;90.00;;;;;;5053349;28;20028;-81
2021/10/04 01:19:26;;;;;;;53.83;34.83;;;8.00;89.90;;;;;;5053728;28;20117;-80
2021/10/04 01:21:51;;;;;;;52.85;34.13;;;7.90;89.60;;;;;;5035718;28;20115;-80
2021/10/04 01:24:18;;;;;;;56.85;33.80;;;7.80;89.70;;;;;;5035564;28;20047;-79
2021/10/04 01:26:44;;;;;;;54.78;34.03;;;7.80;89.20;;;;;;5057288;28;20035;-79
2021/10/04 01:29:10;;;;;;;48.22;33.28;;;7.70;89.00;;;;;;5075573;28;20024;-79
2021/10/04 01:31:36;;;;;;;48.10;33.67;;;7.70;89.20;;;;;;5093756;28;20437;-79
2021/10/04 01:34:04;;;;;;;45.40;31.45;;;7.70;89.70;;;;;;5075459;28;20077;-79
2021/10/04 01:36:31;;;;;;;52.70;34.70;;;7.70;90.30;;;;;;5093672;28;20024;-80
2021/10/04 01:38:58;;;;;;;47.80;33.28;;;7.70;90.50;;;;;;5093591;28;20423;-79
2021/10/04 01:41:25;;;;;;;55.35;37.70;;;7.70;90.40;;;;;;5075192;28;20466;-80
2021/10/04 01:43:52;;;;;;;50.13;34.85;;;7.70;91.30;;;;;;5075484;28;20099;-80
2021/10/04 01:46:18;;;;;;;50.83;34.50;;;7.70;91.40;;;;;;5075644;28;20028;-80
2021/10/04 01:48:44;;;;;;;54.30;34.78;;;7.70;91.60;;;;;;5097284;28;20386;-80
2021/10/04 01:51:10;;;;;;;50.20;35.75;;;7.80;91.20;;;;;;5097627;28;20109;-79
2021/10/04 01:53:36;;;;;;;52.50;35.30;;;7.70;90.70;;;;;;5079007;28;20027;-79
2021/10/04 01:56:02;;;;;;;49.95;35.70;;;7.70;90.90;;;;;;5078453;28;20046;-80
2021/10/04 01:58:30;;;;;;;43.72;30.60;;;7.70;91.80;;;;;;5097773;28;20086;-79
2021/10/04 02:00:57;;;;;;;54.03;36.83;;;7.80;93.50;;;;;;5097196;28;20032;-79
2021/10/04 02:03:23;;;;;;;46.45;33.50;;;7.80;93.10;;;;;;5097104;28;20055;-80
2021/10/04 02:05:49;;;;;;;50.45;33.80;;;7.70;92.50;;;;;;5097314;28;20074;-80
2021/10/04 02:08:14;;;;;;;41.47;28.17;;;7.70;93.70;;;;;;5078487;28;20520;-79
2021/10/04 02:10:42;;;;;;;37.33;24.20;;;7.70;95.20;;;;;;5078691;28;20036;-79
2021/10/04 02:13:10;;;;;;;37.58;25.73;;;7.80;97.10;;;;;;5097209;28;20028;-79
2021/10/04 02:15:38;;;;;;;43.03;28.40;;;7.90;97.60;;;;;;5078804;28;20024;-78
2021/10/04 02:18:05;;;;;;;46.90;30.95;;;8.00;97.00;;;;;;5097155;28;20028;-80
2021/10/04 02:20:34;;;;;;;37.67;26.33;;;8.00;95.20;;;;;;5096723;28;20086;-79
2021/10/04 02:23:06;;;;;;;36.53;24.48;;;8.00;96.10;;;;;;5097153;28;20024;-79
2021/10/04 02:25:36;;;;;;;37.90;26.50;;;8.00;97.60;;;;;;5079104;28;20035;-80
2021/10/04 02:28:04;;;;;;;39.08;26.17;;;8.10;97.90;;;;;;5077878;28;20032;-80
2021/10/04 02:30:30;;;;;;;42.60;25.80;;;8.20;97.80;;;;;;5078487;28;20024;-80
2021/10/04 02:32:56;;;;;;;42.20;29.55;;;8.30;97.70;;;;;;5078393;28;20024;-78
2021/10/04 02:35:22;;;;;;;42.63;29.05;;;8.40;95.70;;;;;;5095960;28;20031;-80
2021/10/04 02:37:49;;;;;;;38.60;27.10;;;8.30;95.00;;;;;;5096996;28;20028;-80
2021/10/04 02:40:15;;;;;;;40.28;27.60;;;8.20;95.10;;;;;;5078450;28;20481;-79
2021/10/04 02:42:42;;;;;;;46.78;31.48;;;8.20;95.50;;;;;;5096348;28;20378;-78
2021/10/04 02:45:09;;;;;;;44.42;30.60;;;8.20;94.20;;;;;;5078208;28;20024;-80
2021/10/04 02:47:35;;;;;;;47.10;31.48;;;8.10;94.30;;;;;;5078157;28;20028;-80
2021/10/04 02:50:01;;;;;;;61.53;34.40;;;8.20;94.20;;;;;;5077877;28;20024;-79
2021/10/04 02:52:26;;;;;;;27.95;21.65;;;8.20;92.90;;;;;;5096197;28;20024;-80
2021/10/04 02:54:52;;;;;;;33.35;23.35;;;8.20;95.00;;;;;;5078222;28;20374;-79
2021/10/04 02:57:18;;;;;;;54.13;37.15;;;8.30;95.80;;;;;;5076291;28;20405;-80
2021/10/04 02:59:44;;;;;;;45.45;30.13;;;8.40;92.30;;;;;;5071215;28;20029;-80
2021/10/04 03:02:09;;;;;;;37.72;27.10;;;8.30;92.00;;;;;;5076018;28;20089;-79
2021/10/04 03:04:35;;;;;;;26.42;20.23;;;8.30;92.40;;;;;;5076119;28;20451;-79
2021/10/04 03:07:01;;;;;;;32.72;22.38;;;8.30;94.50;;;;;;5046003;28;20049;-79
2021/10/04 03:09:26;;;;;;;41.95;28.02;;;8.30;94.70;;;;;;5035819;28;20464;-79
2021/10/04 03:11:52;;;;;;;36.97;27.35;;;8.40;93.90;;;;;;5034282;28;20129;-79
2021/10/04 03:14:18;;;;;;;51.03;33.33;;;8.40;93.70;;;;;;5035924;28;20036;-78
2021/10/04 03:16:43;;;;;;;31.77;23.92;;;8.30;92.00;;;;;;5034295;28;20056;-79
2021/10/04 03:19:09;;;;;;;38.55;26.55;;;8.40;93.60;;;;;;5035651;28;20526;-79
2021/10/04 03:21:35;;;;;;;38.65;23.40;;;8.50;94.20;;;;;;5034362;28;20049;-78
2021/10/04 03:24:00;;;;;;;29.63;22.30;;;8.50;95.60;;;;;;5034147;28;20021;-78
2021/10/04 03:26:26;;;;;;;34.30;24.27;;;8.60;96.20;;;;;;5035516;28;20049;-78
2021/10/04 03:28:52;;;;;;;28.73;21.30;;;8.70;96.20;;;;;;5046960;28;20390;-78
2021/10/04 03:31:18;;;;;;;30.50;22.80;;;8.80;96.10;;;;;;5053935;28;20120;-79
2021/10/04 03:33:44;;;;;;;34.60;24.95;;;8.80;95.60;;;;;;5055267;28;20117;-78
2021/10/04 03:36:09;;;;;;;32.90;20.88;;;8.90;94.60;;;;;;5053779;28;20025;-78
2021/10/04 03:38:35;;;;;;;26.05;17.77;;;9.00;94.80;;;;;;5053864;28;20029;-78
2021/10/04 03:41:01;;;;;;;26.52;20.10;;;9.00;94.60;;;;;;5055133;28;20041;-80
2021/10/04 03:43:27;;;;;;;32.05;22.45;;;9.10;93.80;;;;;;5053804;28;20036;-79
2021/10/04 03:45:52;;;;;;;47.53;30.10;;;9.10;93.10;;;;;;5053603;28;20083;-79
2021/10/04 03:48:18;;;;;;;45.38;30.52;;;9.10;93.20;;;;;;5054871;28;20032;-79
2021/10/04 03:50:44;;;;;;;71.13;45.80;;;9.10;93.00;;;;;;5054203;28;20090;-79
2021/10/04 03:53:10;;;;;;;85.38;56.70;;;9.10;93.20;;;;;;5054137;28;20032;-79
2021/10/04 03:55:36;;;;;;;74.78;46.08;;;9.20;93.50;;;;;;5053429;28;20025;-79
2021/10/04 03:58:02;;;;;;;41.15;27.25;;;9.20;92.60;;;;;;5050505;28;20021;-78
2021/10/04 04:00:28;;;;;;;41.53;29.10;;;9.30;92.80;;;;;;5034348;28;20185;-78
2021/10/04 04:02:54;;;;;;;35.45;25.60;;;9.30;92.60;;;;;;5016001;28;20101;-86
2021/10/04 04:05:20;;;;;;;48.83;32.28;;;9.30;92.30;;;;;;5028251;28;20120;-84
2021/10/04 04:07:46;;;;;;;43.40;28.13;;;9.40;92.00;;;;;;5028031;28;20527;-86
2021/10/04 04:10:13;;;;;;;43.90;31.30;;;9.50;91.60;;;;;;5028358;28;20030;-83
2021/10/04 04:12:40;;;;;;;41.13;29.45;;;9.60;91.90;;;;;;5029959;28;20029;-85
2021/10/04 04:15:06;;;;;;;39.25;28.17;;;9.80;91.90;;;;;;5014871;28;20453;-86
2021/10/04 04:17:32;;;;;;;56.50;35.28;;;10.00;91.50;;;;;;5029604;28;20557;-88
2021/10/04 04:19:58;;;;;;;50.97;35.83;;;10.30;90.30;;;;;;5030008;28;20030;-87
2021/10/04 04:22:24;;;;;;;50.22;29.88;;;10.50;89.90;;;;;;5030063;28;20018;-86
2021/10/04 04:24:50;;;;;;;33.78;24.48;;;10.80;89.10;;;;;;5030492;28;20487;-85
2021/10/04 04:27:16;;;;;;;46.97;31.95;;;11.20;88.00;;;;;;5019625;28;20041;-85
2021/10/04 04:29:42;;;;;;;50.10;34.22;;;11.60;86.00;;;;;;5052846;28;20035;-85
2021/10/04 04:32:10;;;;;;;48.22;32.88;;;12.00;84.80;;;;;;5052498;28;20482;-85
2021/10/04 04:34:36;;;;;;;49.97;34.00;;;12.30;82.50;;;;;;5053276;28;20031;-86
2021/10/04 04:37:03;;;;;;;45.03;32.95;;;12.70;80.50;;;;;;5052767;28;20430;-86
2021/10/04 04:39:30;;;;;;;60.13;35.08;;;12.90;77.80;;;;;;5053866;28;20039;-87
2021/10/04 04:41:56;;;;;;;42.30;27.30;;;12.90;76.10;;;;;;5052766;28;20029;-83
2021/10/04 04:44:23;;;;;;;32.80;23.48;;;12.90;75.50;;;;;;5052470;28;20086;-86
2021/10/04 04:46:49;;;;;;;32.30;21.80;;;12.80;75.40;;;;;;5052637;28;20127;-86
2021/10/04 04:49:16;;;;;;;40.28;26.60;;;12.70;75.50;;;;;;5035304;28;20049;-86
2021/10/04 04:51:42;;;;;;;32.17;24.30;;;12.70;75.90;;;;;;5032733;28;20121;-85
2021/10/04 04:54:08;;;;;;;49.95;29.02;;;12.80;76.10;;;;;;5033721;28;20120;-85
2021/10/04 04:56:33;;;;;;;52.13;31.83;;;13.00;76.00;;;;;;5033775;28;20061;-86
2021/10/04 04:58:59;;;;;;;40.08;25.40;;;13.40;75.90;;;;;;5032066;28;20084;-86
2021/10/04 05:01:25;;;;;;;27.70;20.48;;;13.80;75.10;;;;;;5033773;28;20056;-86
2021/10/04 05:03:51;;;;;;;35.30;25.95;;;14.20;73.50;;;;;;5032467;28;20034;-87
2021/10/04 05:06:16;;;;;;;30.05;21.40;;;14.30;71.40;;;;;;5037208;28;20029;-86
2021/10/04 05:08:42;;;;;;;26.63;17.10;;;14.30;70.40;;;;;;5070060;28;20036;-86
2021/10/04 05:11:08;;;;;;;31.88;19.90;;;14.10;70.10;;;;;;5093398;28;20469;-89
2021/10/04 05:13:34;;;;;;;33.70;25.20;;;14.10;70.20;;;;;;5061565;28;20025;-90
2021/10/04 05:15:59;;;;;;;32.40;25.48;;;14.10;70.90;;;;;;5060846;28;20425;-87
2021/10/04 05:18:25;;;;;;;28.27;22.45;;;14.20;70.60;;;;;;5063752;28;20093;-90
2021/10/04 05:20:51;;;;;;;28.38;21.75;;;14.30;70.20;;;;;;5074127;28;20032;-90
2021/10/04 05:23:17;;;;;;;26.00;20.98;;;14.60;70.00;;;;;;5094064;28;20474;-87
2021/10/04 05:25:42;;;;;;;23.02;17.35;;;14.90;69.60;;;;;;5083653;28;20021;-92
2021/10/04 05:28:08;;;;;;;21.60;14.82;;;15.30;69.30;;;;;;5062874;28;20360;-84
2021/10/04 05:30:34;;;;;;;19.05;15.07;;;15.80;68.30;;;;;;5062441;28;20032;-74
2021/10/04 05:33:00;;;;;;;18.58;13.93;;;16.10;66.80;;;;;;5042239;28;20467;-86
2021/10/04 05:35:26;;;;;;;25.13;15.30;;;16.10;65.40;;;;;;5074337;28;20035;-85
2021/10/04 05:37:52;;;;;;;21.70;14.75;;;16.10;64.80;;;;;;5076917;28;20036;-91
2021/10/04 05:40:18;;;;;;;18.17;12.20;;;15.90;64.70;;;;;;5061891;28;20032;-74
2021/10/04 05:42:44;;;;;;;20.40;14.02;;;15.50;64.70;;;;;;5065263;28;20658;-74
2021/10/04 05:45:11;;;;;;;19.98;15.85;;;15.30;65.60;;;;;;5084866;28;20028;-75
2021/10/04 05:47:38;;;;;;;21.65;15.93;;;15.10;66.40;;;;;;5079880;28;20035;-89
2021/10/04 05:50:05;;;;;;;28.63;17.25;;;14.90;67.00;;;;;;5080105;28;20028;-89
2021/10/04 05:52:31;;;;;;;28.00;17.75;;;14.70;67.30;;;;;;5073258;28;20028;-89
2021/10/04 05:54:57;;;;;;;23.25;14.68;;;14.50;68.10;;;;;;5080422;28;20385;-88
2021/10/04 05:57:23;;;;;;;18.38;11.73;;;14.40;68.40;;;;;;5099949;28;20093;-89
2021/10/04 05:59:48;;;;;;;16.85;11.93;;;14.30;68.10;;;;;;5090653;28;20082;-89
2021/10/04 06:02:14;;;;;;;19.00;13.23;;;14.30;68.30;;;;;;5068835;28;20055;-88
2021/10/04 06:04:40;;;;;;;19.40;13.15;;;14.30;68.80;;;;;;5100577;28;20122;-88
2021/10/04 06:07:05;;;;;;;17.60;12.23;;;14.20;68.80;;;;;;5080425;28;20529;-86
2021/10/04 06:09:31;;;;;;;19.20;12.30;;;14.30;68.90;;;;;;5099952;28;20136;-80
2021/10/04 06:11:57;;;;;;;19.10;12.23;;;14.30;68.90;;;;;;5099886;28;20451;-90
2021/10/04 06:14:23;;;;;;;15.10;10.73;;;14.30;69.00;;;;;;5099791;28;20024;-90
2021/10/04 06:16:49;;;;;;;15.48;11.02;;;14.40;68.60;;;;;;5100279;28;20024;-89
2021/10/04 06:19:15;;;;;;;21.25;12.98;;;14.50;68.70;;;;;;5098989;28;20047;-89
2021/10/04 06:21:41;;;;;;;18.13;12.00;;;14.50;68.50;;;;;;5099890;28;20458;-88
2021/10/04 06:24:06;;;;;;;21.58;13.55;;;14.50;68.50;;;;;;5064714;28;20028;-90
2021/10/04 06:26:32;;;;;;;19.70;11.43;;;14.60;68.40;;;;;;5061820;28;20368;-89
2021/10/04 06:28:58;;;;;;;19.80;12.38;;;14.70;68.40;;;;;;5062214;28;20410;-90
2021/10/04 06:31:26;;;;;;;18.95;12.50;;;14.70;68.50;;;;;;5054587;28;20017;-83
2021/10/04 06:33:51;;;;;;;16.00;11.75;;;14.60;68.10;;;;;;5059450;28;20462;-86
2021/10/04 06:36:17;;;;;;;16.08;12.57;;;14.70;68.10;;;;;;5073667;28;20025;-90
2021/10/04 06:38:44;;;;;;;19.30;12.48;;;14.70;67.90;;;;;;5075513;28;20032;-89
2021/10/04 06:41:09;;;;;;;17.73;12.07;;;14.80;68.20;;;;;;5078550;28;20077;-84
2021/10/04 06:43:35;;;;;;;13.80;10.77;;;15.00;67.80;;;;;;5073272;28;20107;-89
2021/10/04 06:46:01;;;;;;;16.67;11.18;;;15.10;67.00;;;;;;5062890;28;20117;-89
2021/10/04 06:48:27;;;;;;;15.35;11.55;;;15.10;66.50;;;;;;5065520;28;20024;-89
2021/10/04 06:50:53;;;;;;;20.90;11.25;;;15.10;66.60;;;;;;5061968;28;20103;-88
2021/10/04 06:53:19;;;;;;;16.38;10.75;;;15.20;66.80;;;;;;5062331;28;20082;-91
2021/10/04 06:55:45;;;;;;;14.43;10.93;;;15.20;66.50;;;;;;5060394;28;20029;-88
2021/10/04 06:58:12;;;;;;;22.20;15.63;;;15.40;66.60;;;;;;5061787;28;20104;-90
2021/10/04 07:00:37;;;;;;;23.00;17.10;;;16.00;66.60;;;;;;5087279;28;20024;-90
2021/10/04 07:03:03;;;;;;;23.65;14.48;;;16.70;65.30;;;;;;5067930;28;20477;-89
2021/10/04 07:05:29;;;;;;;18.88;13.75;;;17.30;64.30;;;;;;5041613;28;20458;-89
2021/10/04 07:07:56;;;;;;;19.58;10.25;;;18.00;62.80;;;;;;5092611;28;20064;-83
2021/10/04 07:10:23;;;;;;;16.80;10.20;;;18.70;60.90;;;;;;5095784;28;20371;-84
2021/10/04 07:12:48;;;;;;;18.60;11.10;;;19.30;59.10;;;;;;5095689;28;20470;-86
2021/10/04 07:15:14;;;;;;;21.27;10.48;;;19.90;58.50;;;;;;5061582;28;20036;-82
2021/10/04 07:17:40;;;;;;;15.85;10.75;;;20.60;57.20;;;;;;5064655;28;20174;-80
2021/10/04 07:20:06;;;;;;;18.65;15.40;;;21.20;55.70;;;;;;5055849;28;20033;-83
2021/10/04 07:22:32;;;;;;;20.67;12.07;;;21.90;54.10;;;;;;5052530;28;20020;-82
2021/10/04 07:24:58;;;;;;;17.92;14.05;;;22.30;52.50;;;;;;5073898;28;20581;-81
2021/10/04 07:27:24;;;;;;;22.08;12.77;;;22.70;51.30;;;;;;5087499;28;20481;-82
2021/10/04 07:29:49;;;;;;;17.00;12.95;;;23.00;50.20;;;;;;5060884;28;20493;-82
2021/10/04 07:32:15;;;;;;;19.35;13.57;;;23.20;49.10;;;;;;5057591;28;20110;-82
2021/10/04 07:34:41;;;;;;;18.92;12.95;;;23.20;48.80;;;;;;5075068;28;20459;-83
2021/10/04 07:37:06;;;;;;;14.82;9.90;;;23.40;48.10;;;;;;5075957;28;20032;-81
2021/10/04 07:39:32;;;;;;;15.82;9.82;;;23.40;47.80;;;;;;5083426;28;20025;-82
2021/10/04 07:41:59;;;;;;;17.83;12.57;;;23.40;47.50;;;;;;5042728;28;20031;-79
2021/10/04 07:44:25;;;;;;;11.68;9.90;;;23.50;48.00;;;;;;5046335;28;20120;-79
2021/10/04 07:46:53;;;;;;;15.45;9.02;;;23.50;47.50;;;;;;5047792;28;20025;-79
2021/10/04 07:49:19;;;;;;;14.07;8.32;;;23.60;47.00;;;;;;5081929;28;20028;-81
2021/10/04 07:51:45;;;;;;;13.90;8.32;;;23.60;47.00;;;;;;5077354;28;20441;-80
2021/10/04 07:54:11;;;;;;;14.43;8.30;;;24.00;46.40;;;;;;5057704;28;20545;-79
2021/10/04 07:56:39;;;;;;;17.50;9.20;;;24.30;46.10;;;;;;5056086;28;20359;-81
2021/10/04 07:59:06;;;;;;;12.43;9.25;;;24.50;46.20;;;;;;5056858;28;20097;-79
2021/10/04 08:01:33;;;;;;;18.10;11.60;;;24.80;45.50;;;;;;5077053;28;20037;-80
2021/10/04 08:03:59;;;;;;;15.10;10.55;;;25.10;45.00;;;;;;5058715;28;20546;-83
2021/10/04 08:06:26;;;;;;;18.98;9.35;;;25.20;44.40;;;;;;5089629;28;20115;-77
2021/10/04 08:08:54;;;;;;;14.65;9.15;;;25.40;44.50;;;;;;5073449;28;20083;-68
2021/10/04 08:11:20;;;;;;;17.13;8.65;;;25.30;43.40;;;;;;5073410;28;20034;-82
2021/10/04 08:13:46;;;;;;;14.77;9.23;;;25.30;43.60;;;;;;5063310;28;20024;-83
2021/10/04 08:16:12;;;;;;;34.15;29.38;;;25.40;43.70;;;;;;5069448;28;20020;-81
2021/10/04 08:18:38;;;;;;;23.38;17.70;;;25.50;43.20;;;;;;5043274;28;20044;-80
2021/10/04 08:21:04;;;;;;;29.63;21.83;;;25.80;43.80;;;;;;5042605;28;20029;-83
2021/10/04 08:23:30;;;;;;;30.48;22.45;;;25.70;42.70;;;;;;5053270;28;20031;-82
2021/10/04 08:25:55;;;;;;;17.58;11.55;;;25.80;42.70;;;;;;5073985;28;20031;-81
2021/10/04 08:28:22;;;;;;;20.55;14.23;;;25.90;42.40;;;;;;5068595;28;20074;-85
2021/10/04 08:30:48;;;;;;;18.40;11.57;;;25.90;42.10;;;;;;5076467;28;20427;-74
2021/10/04 08:33:14;;;;;;;15.95;9.45;;;25.80;41.90;;;;;;5056001;28;20059;-84
2021/10/04 08:35:40;;;;;;;12.38;8.20;;;25.90;42.20;;;;;;5060968;28;20043;-79
2021/10/04 08:38:06;;;;;;;14.60;8.57;;;25.80;41.70;;;;;;5064073;28;20496;-81
2021/10/04 08:40:32;;;;;;;23.60;17.80;;;25.50;41.50;;;;;;5039292;28;20108;-83
2021/10/04 08:42:58;;;;;;;16.08;8.40;;;25.60;41.80;;;;;;5048362;28;20020;-79
2021/10/04 08:45:28;;;;;;;19.05;9.45;;;25.70;41.10;;;;;;5051341;28;20029;-85
2021/10/04 08:47:58;;;;;;;13.73;8.73;;;25.60;41.00;;;;;;5061906;28;20029;-79
2021/10/04 08:50:27;;;;;;;12.00;7.90;;;25.60;41.10;;;;;;5088080;28;20070;-79
2021/10/04 08:52:53;;;;;;;16.33;9.07;;;25.70;41.10;;;;;;5072422;28;20115;-80
2021/10/04 08:55:20;;;;;;;15.18;9.05;;;25.70;41.10;;;;;;5044189;28;20070;-79
2021/10/04 08:57:45;;;;;;;12.60;9.13;;;25.90;40.20;;;;;;5071767;28;20039;-82
2021/10/04 09:00:11;;;;;;;17.23;8.15;;;26.00;39.80;;;;;;5068786;28;20478;-78
2021/10/04 09:02:37;;;;;;;12.65;6.35;;;25.90;39.50;;;;;;5072906;28;20048;-78
2021/10/04 09:05:12;;;;;;;14.52;7.38;;;25.80;39.10;;;;;;5050963;28;20029;-77
2021/10/04 09:08:10;;;;;;;8.77;5.40;;;25.70;39.20;;;;;;5051791;28;20056;-78
2021/10/04 09:10:38;;;;;;;10.02;5.47;;;25.60;38.20;;;;;;5001421;28;20044;-79
2021/10/04 09:13:09;;;;;;;7.80;5.80;;;25.60;38.30;;;;;;5035035;28;20029;-78
2021/10/04 09:15:46;;;;;;;9.52;6.43;;;25.80;38.10;;;;;;5052879;28;20487;-78
2021/10/04 09:18:15;;;;;;;9.27;5.10;;;25.50;37.70;;;;;;5063694;28;20071;-78
2021/10/04 09:20:59;;;;;;;9.15;5.28;;;25.20;36.90;;;;;;5073662;28;20036;-78
2021/10/04 09:23:44;;;;;;;11.97;6.77;;;24.70;37.80;;;;;;5073642;28;20032;-78
2021/10/04 09:26:30;;;;;;;11.98;5.70;;;24.70;38.70;;;;;;5073860;28;20291;-79
2021/10/04 09:29:12;;;;;;;7.47;4.40;;;24.90;38.10;;;;;;5073638;28;20111;-79
2021/10/04 09:31:40;;;;;;;13.80;5.30;;;24.60;36.00;;;;;;5073385;28;20025;-78
2021/10/04 09:34:14;;;;;;;10.23;4.80;;;24.10;36.90;;;;;;5054279;28;20029;-79
2021/10/04 09:36:50;;;;;;;9.25;4.70;;;23.70;36.90;;;;;;5055781;28;20532;-78
2021/10/04 09:39:20;;;;;;;9.73;5.30;;;23.50;37.20;;;;;;5055382;28;20036;-78
2021/10/04 09:42:03;;;;;;;8.55;5.40;;;23.30;38.00;;;;;;5055509;28;20028;-79
2021/10/04 09:44:51;;;;;;;7.90;5.25;;;23.40;38.60;;;;;;5072978;28;20039;-79
2021/10/04 09:47:32;;;;;;;6.57;4.18;;;23.60;37.90;;;;;;5068548;28;20029;-79
2021/10/04 09:50:13;;;;;;;5.70;3.97;;;23.80;38.30;;;;;;5054271;28;20025;-78
2021/10/04 09:53:00;;;;;;;6.97;3.92;;;23.80;37.50;;;;;;5053161;28;20036;-79
2021/10/04 09:55:37;;;;;;;5.25;3.58;;;23.80;36.90;;;;;;5035660;28;20021;-78
2021/10/04 09:58:09;;;;;;;6.20;3.42;;;23.40;36.40;;;;;;5053200;28;20029;-77
2021/10/04 10:00:43;;;;;;;6.18;3.58;;;23.10;36.90;;;;;;5052949;28;20383;-78
2021/10/04 10:03:11;;;;;;;8.57;4.07;;;22.80;36.90;;;;;;5035274;28;20029;-78
2021/10/04 10:05:40;;;;;;;6.93;4.00;;;22.40;37.70;;;;;;5034861;28;20078;-77
2021/10/04 10:08:06;;;;;;;7.88;4.43;;;22.00;37.90;;;;;;5035227;28;20060;-78
2021/10/04 10:10:32;;;;;;;5.97;3.80;;;21.60;38.90;;;;;;5056722;28;20033;-77
2021/10/04 10:12:58;;;;;;;7.30;4.43;;;21.10;39.20;;;;;;5039014;28;20029;-77
2021/10/04 10:15:27;;;;;;;8.20;3.88;;;20.70;39.60;;;;;;5056669;28;20053;-77
2021/10/04 10:18:21;;;;;;;10.05;4.55;;;20.30;40.30;;;;;;5039256;28;20475;-77
2021/10/04 10:21:22;;;;;;;8.30;4.20;;;20.20;40.30;;;;;;5026870;28;20102;-77
2021/10/04 10:23:53;;;;;;;10.60;4.78;;;20.60;40.30;;;;;;5056793;28;20059;-77
2021/10/04 10:26:27;;;;;;;11.18;8.00;;;21.00;39.90;;;;;;5056499;28;20025;-78
2021/10/04 10:29:19;;;;;;;10.10;6.22;;;21.40;39.40;;;;;;5056584;28;20147;-77
2021/10/04 10:31:48;;;;;;;11.55;7.28;;;21.70;39.20;;;;;;5056328;28;20032;-79
2021/10/04 10:34:35;;;;;;;10.65;5.30;;;21.70;38.60;;;;;;5056482;28;20394;-78
2021/10/04 10:37:02;;;;;;;12.40;6.00;;;21.50;39.00;;;;;;5039266;28;20029;-78
2021/10/04 10:39:51;;;;;;;8.93;3.88;;;21.70;39.60;;;;;;5038778;28;20427;-78
2021/10/04 10:42:27;;;;;;;11.82;3.78;;;22.10;39.80;;;;;;5038537;28;20049;-79
2021/10/04 10:44:59;;;;;;;7.35;3.53;;;22.30;38.60;;;;;;5038367;28;20430;-79
2021/10/04 10:47:36;;;;;;;11.82;7.88;;;22.40;38.40;;;;;;5063166;28;20478;-78
2021/10/04 10:50:08;;;;;;;5.35;3.47;;;22.60;38.30;;;;;;5058641;28;20028;-79
2021/10/04 10:52:40;;;;;;;5.95;3.55;;;22.70;37.50;;;;;;5058179;28;20027;-79
2021/10/04 10:55:18;;;;;;;7.82;4.18;;;22.60;37.40;;;;;;5075930;28;20036;-79
2021/10/04 10:57:55;;;;;;;6.22;3.17;;;22.50;37.10;;;;;;5076048;28;20050;-79
2021/10/04 11:00:30;;;;;;;8.32;4.07;;;22.30;36.70;;;;;;5075899;28;20084;-79
2021/10/04 11:02:59;;;;;;;6.75;3.47;;;22.30;37.40;;;;;;5076182;28;20078;-80
2021/10/04 11:05:42;;;;;;;9.27;4.53;;;22.30;36.80;;;;;;5057745;28;20395;-79
2021/10/04 11:08:14;;;;;;;13.05;7.70;;;22.30;37.50;;;;;;5057801;28;20581;-79
2021/10/04 11:10:53;;;;;;;13.45;4.88;;;22.40;37.00;;;;;;5057947;28;20051;-79
2021/10/04 11:13:58;;;;;;;7.05;4.10;;;22.40;37.00;;;;;;5058329;28;20040;-79
2021/10/04 11:16:23;;;;;;;6.18;3.75;;;22.40;36.60;;;;;;5055620;28;20032;-79
2021/10/04 11:18:50;;;;;;;14.02;7.05;;;22.40;36.10;;;;;;5075451;28;20034;-78
2021/10/04 11:21:20;;;;;;;6.57;4.18;;;22.40;36.20;;;;;;5057275;28;20474;-80
2021/10/04 11:23:47;;;;;;;10.40;3.50;;;22.40;37.30;;;;;;5057440;28;20105;-79
2021/10/04 11:26:19;;;;;;;17.70;9.70;;;22.50;36.50;;;;;;5050823;28;20043;-79
2021/10/04 11:28:48;;;;;;;7.90;4.80;;;22.60;36.40;;;;;;5055744;28;20040;-80
2021/10/04 11:31:20;;;;;;;7.88;3.78;;;22.60;35.80;;;;;;5055566;28;20021;-79
2021/10/04 11:33:57;;;;;;;6.07;3.45;;;22.40;35.60;;;;;;5055022;28;20027;-79
2021/10/04 11:36:26;;;;;;;7.50;3.10;;;22.00;35.40;;;;;;5055233;28;20494;-80
2021/10/04 11:38:59;;;;;;;4.43;2.88;;;21.80;35.60;;;;;;5036889;28;20035;-80
2021/10/04 11:41:28;;;;;;;11.95;3.78;;;21.70;35.70;;;;;;5036641;28;20021;-80
2021/10/04 11:44:00;;;;;;;5.93;3.50;;;21.70;36.20;;;;;;5055454;28;20032;-80
2021/10/04 11:46:32;;;;;;;6.15;3.58;;;21.80;36.50;;;;;;5055091;28;20025;-80
2021/10/04 11:49:11;;;;;;;7.47;3.97;;;22.00;36.60;;;;;;5037545;28;20027;-81
2021/10/04 11:51:45;;;;;;;7.53;3.38;;;21.90;36.20;;;;;;5037081;28;20479;-81
2021/10/04 11:54:13;;;;;;;8.32;3.92;;;21.70;36.60;;;;;;5055486;28;20024;-81
2021/10/04 11:56:41;;;;;;;5.97;3.55;;;21.50;36.70;;;;;;5055022;28;20357;-81
2021/10/04 11:59:07;;;;;;;7.53;4.20;;;21.20;36.80;;;;;;5054954;28;20099;-81
2021/10/04 12:01:36;;;;;;;9.65;5.10;;;20.80;37.30;;;;;;5045030;28;20032;-80
2021/10/04 12:04:05;;;;;;;6.40;3.50;;;20.80;37.90;;;;;;5074661;28;20108;-80
2021/10/04 12:06:31;;;;;;;8.27;4.40;;;20.70;37.50;;;;;;5056485;28;20041;-79
2021/10/04 12:08:58;;;;;;;6.57;3.63;;;20.40;38.00;;;;;;5056821;28;20047;-80
2021/10/04 12:11:24;;;;;;;4.82;3.40;;;20.20;38.60;;;;;;5074849;28;20047;-80
2021/10/04 12:13:50;;;;;;;9.45;4.82;;;20.00;38.70;;;;;;5074570;28;20024;-79
2021/10/04 12:16:17;;;;;;;6.05;4.07;;;19.70;39.40;;;;;;5056731;28;20027;-80
2021/10/04 12:18:46;;;;;;;7.15;3.47;;;19.50;39.90;;;;;;5074161;28;20033;-80
2021/10/04 12:21:20;;;;;;;6.53;4.10;;;19.20;40.40;;;;;;5067087;28;20021;-80
2021/10/04 12:24:04;;;;;;;12.30;6.05;;;18.90;40.60;;;;;;5054396;28;20486;-79
2021/10/04 12:26:30;;;;;;;6.97;3.85;;;18.50;41.00;;;;;;5054294;28;20025;-81
2021/10/04 12:28:55;;;;;;;8.60;4.22;;;18.40;41.80;;;;;;5054056;28;20036;-79
2021/10/04 12:31:31;;;;;;;11.70;4.18;;;18.20;42.30;;;;;;5035300;28;20029;-79
2021/10/04 12:33:57;;;;;;;8.43;4.50;;;18.10;43.00;;;;;;5036579;28;20029;-79
2021/10/04 12:36:23;;;;;;;8.68;4.45;;;17.90;43.20;;;;;;5036168;28;20364;-80
2021/10/04 12:38:54;;;;;;;10.50;4.50;;;17.80;43.60;;;;;;5036420;28;20033;-79
2021/10/04 12:41:20;;;;;;;5.43;3.42;;;17.80;43.70;;;;;;5036137;28;20120;-80